createdAt,value
2023-05-07T00:00:02.582Z,15.57
2023-05-07T00:01:02.503Z,15.56
2023-05-07T00:02:02.504Z,15.59
2023-05-07T00:03:02.643Z,15.57
2023-05-07T00:04:02.832Z,15.59
2023-05-07T00:05:02.587Z,15.57
2023-05-07T00:06:02.456Z,15.56
2023-05-07T00:07:03.413Z,15.57
2023-05-07T00:08:02.403Z,15.57
2023-05-07T00:09:02.452Z,15.57
2023-05-07T00:10:02.559Z,15.59
2023-05-07T00:11:02.397Z,15.56
2023-05-07T00:12:02.377Z,15.57
2023-05-07T00:13:02.374Z,15.59
2023-05-07T00:14:02.341Z,15.57
2023-05-07T00:15:02.337Z,15.59
2023-05-07T00:16:02.355Z,15.60
2023-05-07T00:17:02.330Z,15.61
2023-05-07T00:18:02.348Z,15.61
2023-05-07T00:19:02.284Z,15.60
2023-05-07T00:20:02.297Z,15.60
2023-05-07T00:21:02.283Z,15.61
2023-05-07T00:22:02.248Z,15.60
2023-05-07T00:23:02.232Z,15.61
2023-05-07T00:24:02.261Z,15.60
2023-05-07T00:25:02.243Z,15.61
2023-05-07T00:26:02.212Z,15.60
2023-05-07T00:27:02.203Z,15.59
2023-05-07T00:28:02.192Z,15.59
2023-05-07T00:29:02.246Z,15.59
2023-05-07T00:30:02.155Z,15.60
2023-05-07T00:31:02.176Z,15.60
2023-05-07T00:32:02.423Z,15.59
2023-05-07T00:33:02.225Z,15.60
2023-05-07T00:34:02.167Z,15.60
2023-05-07T00:35:02.098Z,15.60
2023-05-07T00:36:02.140Z,15.59
2023-05-07T00:37:02.538Z,15.59
2023-05-07T00:38:02.164Z,15.57
2023-05-07T00:39:02.026Z,15.59
2023-05-07T00:40:02.057Z,15.59
2023-05-07T00:41:02.014Z,15.59
2023-05-07T00:42:02.038Z,15.59
2023-05-07T00:43:01.989Z,15.59
2023-05-07T00:44:01.978Z,15.59
2023-05-07T00:45:01.996Z,15.61
2023-05-07T00:46:02.116Z,15.61
2023-05-07T00:47:01.938Z,15.61
2023-05-07T00:48:02.126Z,15.61
2023-05-07T00:49:01.924Z,15.64
2023-05-07T00:50:01.948Z,15.64
2023-05-07T00:51:01.885Z,15.64
2023-05-07T00:52:02.074Z,15.63
2023-05-07T00:53:01.899Z,15.61
2023-05-07T00:54:01.891Z,15.61
2023-05-07T00:55:01.852Z,15.60
2023-05-07T00:56:01.936Z,15.60
2023-05-07T00:57:01.882Z,15.60
2023-05-07T00:58:01.821Z,15.59
2023-05-07T00:59:01.951Z,15.59
2023-05-07T01:00:01.810Z,15.60
2023-05-07T01:01:01.797Z,15.60
2023-05-07T01:02:01.805Z,15.57
2023-05-07T01:03:01.867Z,15.59
2023-05-07T01:04:01.839Z,15.59
2023-05-07T01:05:01.733Z,15.59
2023-05-07T01:06:01.731Z,15.59
2023-05-07T01:07:01.737Z,15.57
2023-05-07T01:08:01.723Z,15.59
2023-05-07T01:09:01.736Z,15.56
2023-05-07T01:10:01.727Z,15.57
2023-05-07T01:11:01.697Z,15.57
2023-05-07T01:12:01.912Z,15.56
2023-05-07T01:13:01.724Z,15.56
2023-05-07T01:14:01.670Z,15.54
2023-05-07T01:15:01.625Z,15.57
2023-05-07T01:16:01.668Z,15.56
2023-05-07T01:17:01.699Z,15.56
2023-05-07T01:18:01.852Z,15.54
2023-05-07T01:19:01.592Z,15.52
2023-05-07T01:20:01.601Z,15.52
2023-05-07T01:21:01.600Z,15.54
2023-05-07T01:22:01.624Z,15.57
2023-05-07T01:23:01.558Z,15.56
2023-05-07T01:24:01.582Z,15.54
2023-05-07T01:25:01.551Z,15.54
2023-05-07T01:26:01.533Z,15.54
2023-05-07T01:27:22.521Z,15.54
2023-05-07T01:28:01.493Z,15.51
2023-05-07T01:29:01.465Z,15.49
2023-05-07T01:30:01.516Z,15.48
2023-05-07T01:31:01.485Z,15.46
2023-05-07T01:32:01.552Z,15.46
2023-05-07T01:33:01.534Z,15.45
2023-05-07T01:34:01.404Z,15.45
2023-05-07T01:35:01.430Z,15.45
2023-05-07T01:36:01.423Z,15.46
2023-05-07T01:37:01.429Z,15.48
2023-05-07T01:38:01.412Z,15.46
2023-05-07T01:39:01.387Z,15.45
2023-05-07T01:40:01.360Z,15.42
2023-05-07T01:41:01.398Z,15.41
2023-05-07T01:42:01.340Z,15.38
2023-05-07T01:43:01.348Z,15.38
2023-05-07T01:44:01.316Z,15.36
2023-05-07T01:45:01.303Z,15.36
2023-05-07T01:46:01.346Z,15.36
2023-05-07T01:47:01.276Z,15.35
2023-05-07T01:48:01.285Z,15.35
2023-05-07T01:49:01.260Z,15.35
2023-05-07T01:50:01.235Z,15.35
2023-05-07T01:51:01.280Z,15.35
2023-05-07T01:52:01.204Z,15.35
2023-05-07T01:53:01.224Z,15.35
2023-05-07T01:54:01.208Z,15.33
2023-05-07T01:55:01.181Z,15.33
2023-05-07T01:56:01.140Z,15.33
2023-05-07T01:57:01.144Z,15.31
2023-05-07T01:58:01.205Z,15.31
2023-05-07T01:59:01.933Z,15.31
2023-05-07T02:00:01.138Z,15.31
2023-05-07T02:01:01.095Z,15.33
2023-05-07T02:02:01.151Z,15.30
2023-05-07T02:03:01.156Z,15.31
2023-05-07T02:04:01.170Z,15.30
2023-05-07T02:05:01.073Z,15.30
2023-05-07T02:06:01.109Z,15.30
2023-05-07T02:07:01.059Z,15.28
2023-05-07T02:08:01.045Z,15.30
2023-05-07T02:09:01.074Z,15.30
2023-05-07T02:10:01.002Z,15.31
2023-05-07T02:11:01.003Z,15.31
2023-05-07T02:12:00.985Z,15.31
2023-05-07T02:13:01.013Z,15.30
2023-05-07T02:14:01.017Z,15.28
2023-05-07T02:15:00.946Z,15.27
2023-05-07T02:16:00.952Z,15.26
2023-05-07T02:17:00.967Z,15.27
2023-05-07T02:18:00.989Z,15.27
2023-05-07T02:19:00.945Z,15.24
2023-05-07T02:20:00.896Z,15.27
2023-05-07T02:21:00.895Z,15.27
2023-05-07T02:22:00.881Z,15.27
2023-05-07T02:23:00.882Z,15.24
2023-05-07T02:24:00.872Z,15.24
2023-05-07T02:25:00.880Z,15.26
2023-05-07T02:26:00.809Z,15.26
2023-05-07T02:27:00.803Z,15.24
2023-05-07T02:28:00.810Z,15.23
2023-05-07T02:29:01.031Z,15.24
2023-05-07T02:30:00.811Z,15.26
2023-05-07T02:31:00.787Z,15.24
2023-05-07T02:32:00.780Z,15.24
2023-05-07T02:33:00.803Z,15.23
2023-05-07T02:34:00.714Z,15.24
2023-05-07T02:35:00.847Z,15.24
2023-05-07T02:36:00.704Z,15.23
2023-05-07T02:37:00.686Z,15.24
2023-05-07T02:38:00.701Z,15.21
2023-05-07T02:39:00.695Z,15.21
2023-05-07T02:40:00.657Z,15.23
2023-05-07T02:41:00.765Z,15.20
2023-05-07T02:42:00.661Z,15.23
2023-05-07T02:43:00.613Z,15.20
2023-05-07T02:44:00.641Z,15.21
2023-05-07T02:45:00.622Z,15.21
2023-05-07T02:46:00.658Z,15.23
2023-05-07T02:47:00.699Z,15.21
2023-05-07T02:48:00.704Z,15.21
2023-05-07T02:49:00.578Z,15.20
2023-05-07T02:50:00.535Z,15.20
2023-05-07T02:51:00.523Z,15.20
2023-05-07T02:52:00.527Z,15.17
2023-05-07T02:53:00.616Z,15.19
2023-05-07T02:54:00.536Z,15.17
2023-05-07T02:55:00.499Z,15.17
2023-05-07T02:56:00.477Z,15.15
2023-05-07T02:57:00.451Z,15.15
2023-05-07T02:58:00.509Z,15.13
2023-05-07T02:59:00.508Z,15.12
2023-05-07T03:00:00.465Z,15.12
2023-05-07T03:01:00.863Z,15.11
2023-05-07T03:02:00.429Z,15.11
2023-05-07T03:03:00.491Z,15.09
2023-05-07T03:04:00.420Z,15.08
2023-05-07T03:05:00.355Z,15.09
2023-05-07T03:06:00.373Z,15.08
2023-05-07T03:07:00.332Z,15.06
2023-05-07T03:08:00.386Z,15.08
2023-05-07T03:09:00.344Z,15.08
2023-05-07T03:10:01.217Z,15.05
2023-05-07T03:11:00.289Z,15.03
2023-05-07T03:12:00.319Z,15.03
2023-05-07T03:13:00.317Z,15.03
2023-05-07T03:14:00.288Z,15.02
2023-05-07T03:15:00.292Z,15.03
2023-05-07T03:16:00.372Z,15.02
2023-05-07T03:17:00.267Z,15.02
2023-05-07T03:18:00.350Z,15.03
2023-05-07T03:19:00.250Z,15.05
2023-05-07T03:20:00.256Z,15.03
2023-05-07T03:21:00.279Z,15.03
2023-05-07T03:22:00.169Z,15.02
2023-05-07T03:23:00.148Z,15.02
2023-05-07T03:24:00.168Z,15.03
2023-05-07T03:25:01.850Z,15.03
2023-05-07T03:26:00.162Z,15.03
2023-05-07T03:27:00.144Z,15.02
2023-05-07T03:28:00.142Z,15.02
2023-05-07T03:29:00.141Z,15.02
2023-05-07T03:30:00.148Z,15.02
2023-05-07T03:31:00.126Z,15.02
2023-05-07T03:32:00.107Z,15.03
2023-05-07T03:33:00.177Z,15.02
2023-05-07T03:34:00.056Z,15.03
2023-05-07T03:35:00.015Z,15.02
2023-05-07T03:36:00.002Z,15.03
2023-05-07T03:37:00.654Z,15.05
2023-05-07T03:38:00.052Z,15.03
2023-05-07T03:38:59.967Z,15.03
2023-05-07T03:39:59.987Z,15.05
2023-05-07T03:40:59.942Z,15.03
2023-05-07T03:41:59.936Z,15.03
2023-05-07T03:42:59.960Z,15.03
2023-05-07T03:43:59.936Z,15.03
2023-05-07T03:44:59.927Z,15.05
2023-05-07T03:45:59.935Z,15.03
2023-05-07T03:46:59.866Z,15.05
2023-05-07T03:47:59.978Z,15.03
2023-05-07T03:48:59.870Z,15.05
2023-05-07T03:49:59.857Z,15.05
2023-05-07T03:50:59.825Z,15.03
2023-05-07T03:51:59.831Z,15.02
2023-05-07T03:52:59.825Z,15.02
2023-05-07T03:53:59.857Z,15.01
2023-05-07T03:54:59.807Z,15.01
2023-05-07T03:55:59.809Z,14.99
2023-05-07T03:56:59.782Z,15.01
2023-05-07T03:57:59.792Z,14.99
2023-05-07T03:58:59.757Z,14.98
2023-05-07T03:59:59.765Z,14.99
2023-05-07T04:00:59.741Z,14.98
2023-05-07T04:01:59.837Z,14.98
2023-05-07T04:02:59.893Z,14.95
2023-05-07T04:03:59.896Z,14.94
2023-05-07T04:04:59.718Z,14.94
2023-05-07T04:05:59.709Z,14.93
2023-05-07T04:06:59.678Z,14.93
2023-05-07T04:07:59.673Z,14.91
2023-05-07T04:08:59.642Z,14.90
2023-05-07T04:09:59.650Z,14.90
2023-05-07T04:11:01.269Z,14.91
2023-05-07T04:11:59.625Z,14.90
2023-05-07T04:12:59.647Z,14.91
2023-05-07T04:13:59.596Z,14.87
2023-05-07T04:14:59.570Z,14.87
2023-05-07T04:15:59.598Z,14.86
2023-05-07T04:16:59.613Z,14.87
2023-05-07T04:17:59.701Z,14.87
2023-05-07T04:18:59.505Z,14.87
2023-05-07T04:19:59.525Z,14.86
2023-05-07T04:20:59.509Z,14.86
2023-05-07T04:21:59.490Z,14.84
2023-05-07T04:22:59.461Z,14.86
2023-05-07T04:23:59.490Z,14.84
2023-05-07T04:24:59.435Z,14.83
2023-05-07T04:25:59.509Z,14.84
2023-05-07T04:26:59.425Z,14.84
2023-05-07T04:27:59.436Z,14.84
2023-05-07T04:28:59.386Z,14.86
2023-05-07T04:29:59.418Z,14.84
2023-05-07T04:30:59.390Z,14.86
2023-05-07T04:31:59.445Z,14.86
2023-05-07T04:32:59.378Z,14.84
2023-05-07T04:33:59.366Z,14.86
2023-05-07T04:34:59.344Z,14.83
2023-05-07T04:35:59.394Z,14.81
2023-05-07T04:36:59.322Z,14.80
2023-05-07T04:37:59.328Z,14.80
2023-05-07T04:38:59.323Z,14.78
2023-05-07T04:39:59.301Z,14.80
2023-05-07T04:40:59.245Z,14.80
2023-05-07T04:41:59.313Z,14.80
2023-05-07T04:42:59.255Z,14.83
2023-05-07T04:43:59.254Z,14.81
2023-05-07T04:44:59.243Z,14.83
2023-05-07T04:45:59.274Z,14.81
2023-05-07T04:46:59.203Z,14.83
2023-05-07T04:47:59.221Z,14.86
2023-05-07T04:48:59.185Z,14.86
2023-05-07T04:49:59.188Z,14.84
2023-05-07T04:50:59.155Z,14.84
2023-05-07T04:51:59.178Z,14.87
2023-05-07T04:52:59.138Z,14.86
2023-05-07T04:53:59.105Z,14.88
2023-05-07T04:54:59.187Z,14.90
2023-05-07T04:55:59.125Z,14.90
2023-05-07T04:56:59.079Z,14.91
2023-05-07T04:57:59.102Z,14.91
2023-05-07T04:58:59.082Z,14.93
2023-05-07T04:59:59.052Z,14.94
2023-05-07T05:00:59.250Z,14.95
2023-05-07T05:01:59.152Z,14.95
2023-05-07T05:02:59.108Z,14.99
2023-05-07T05:03:59.064Z,15.02
2023-05-07T05:04:58.994Z,15.02
2023-05-07T05:05:59.007Z,15.03
2023-05-07T05:06:58.970Z,15.03
2023-05-07T05:07:58.971Z,15.03
2023-05-07T05:08:58.963Z,15.05
2023-05-07T05:09:58.961Z,15.05
2023-05-07T05:10:58.907Z,15.05
2023-05-07T05:12:00.595Z,15.05
2023-05-07T05:12:59.179Z,15.06
2023-05-07T05:13:58.922Z,15.05
2023-05-07T05:14:58.893Z,15.06
2023-05-07T05:15:58.901Z,15.05
2023-05-07T05:16:58.841Z,15.05
2023-05-07T05:17:58.896Z,15.08
2023-05-07T05:18:58.884Z,15.11
2023-05-07T05:19:58.856Z,15.09
2023-05-07T05:20:58.838Z,15.11
2023-05-07T05:21:58.824Z,15.12
2023-05-07T05:22:58.769Z,15.13
2023-05-07T05:23:58.800Z,15.13
2023-05-07T05:24:58.801Z,15.13
2023-05-07T05:25:58.826Z,15.19
2023-05-07T05:26:58.773Z,15.19
2023-05-07T05:27:58.722Z,15.20
2023-05-07T05:28:58.738Z,15.21
2023-05-07T05:29:58.711Z,15.21
2023-05-07T05:30:58.705Z,15.23
2023-05-07T05:31:58.765Z,15.26
2023-05-07T05:32:58.707Z,15.27
2023-05-07T05:33:58.698Z,15.28
2023-05-07T05:34:58.667Z,15.28
2023-05-07T05:35:58.672Z,15.30
2023-05-07T05:36:58.659Z,15.31
2023-05-07T05:38:05.329Z,15.30
2023-05-07T05:38:58.832Z,15.33
2023-05-07T05:39:58.624Z,15.36
2023-05-07T05:40:58.596Z,15.38
2023-05-07T05:41:58.563Z,15.39
2023-05-07T05:42:58.578Z,15.38
2023-05-07T05:43:58.573Z,15.41
2023-05-07T05:44:58.528Z,15.42
2023-05-07T05:45:58.606Z,15.45
2023-05-07T05:46:58.616Z,15.46
2023-05-07T05:47:58.536Z,15.46
2023-05-07T05:48:58.522Z,15.51
2023-05-07T05:49:58.529Z,15.51
2023-05-07T05:50:58.480Z,15.56
2023-05-07T05:51:58.480Z,15.57
2023-05-07T05:52:58.429Z,15.59
2023-05-07T05:53:58.464Z,15.60
2023-05-07T05:54:58.411Z,15.63
2023-05-07T05:55:58.412Z,15.66
2023-05-07T05:56:58.424Z,15.66
2023-05-07T05:57:58.390Z,15.68
2023-05-07T05:58:58.375Z,15.68
2023-05-07T05:59:58.366Z,15.70
2023-05-07T06:00:58.360Z,15.74
2023-05-07T06:01:58.368Z,15.74
2023-05-07T06:02:58.402Z,15.76
2023-05-07T06:03:58.355Z,15.78
2023-05-07T06:04:58.348Z,15.81
2023-05-07T06:05:58.316Z,15.82
2023-05-07T06:06:58.288Z,15.82
2023-05-07T06:07:58.277Z,15.84
2023-05-07T06:08:58.246Z,15.82
2023-05-07T06:09:58.384Z,15.86
2023-05-07T06:10:58.215Z,15.92
2023-05-07T06:12:00.601Z,15.93
2023-05-07T06:12:58.234Z,15.94
2023-05-07T06:13:58.219Z,15.97
2023-05-07T06:14:58.172Z,16.01
2023-05-07T06:15:58.218Z,16.01
2023-05-07T06:16:58.239Z,16.04
2023-05-07T06:17:58.171Z,16.07
2023-05-07T06:18:58.143Z,16.11
2023-05-07T06:19:58.160Z,16.15
2023-05-07T06:20:58.152Z,16.16
2023-05-07T06:21:58.139Z,16.20
2023-05-07T06:22:58.109Z,16.20
2023-05-07T06:23:58.116Z,16.23
2023-05-07T06:24:58.091Z,16.23
2023-05-07T06:25:58.089Z,16.23
2023-05-07T06:26:58.066Z,16.27
2023-05-07T06:27:58.230Z,16.30
2023-05-07T06:28:58.016Z,16.31
2023-05-07T06:29:58.016Z,16.33
2023-05-07T06:30:57.988Z,16.35
2023-05-07T06:31:58.061Z,16.37
2023-05-07T06:32:57.998Z,16.38
2023-05-07T06:33:58.024Z,16.41
2023-05-07T06:34:57.967Z,16.44
2023-05-07T06:35:57.940Z,16.45
2023-05-07T06:36:57.942Z,16.48
2023-05-07T06:37:57.946Z,16.50
2023-05-07T06:38:57.944Z,16.53
2023-05-07T06:39:59.934Z,16.53
2023-05-07T06:40:57.906Z,16.52
2023-05-07T06:41:57.904Z,16.53
2023-05-07T06:42:57.849Z,16.55
2023-05-07T06:43:57.854Z,16.56
2023-05-07T06:44:57.858Z,16.58
2023-05-07T06:45:58.272Z,16.60
2023-05-07T06:46:57.801Z,16.62
2023-05-07T06:47:57.846Z,16.62
2023-05-07T06:48:57.787Z,16.65
2023-05-07T06:49:57.786Z,16.67
2023-05-07T06:50:57.756Z,16.70
2023-05-07T06:51:57.791Z,16.73
2023-05-07T06:52:57.754Z,16.74
2023-05-07T06:53:57.765Z,16.75
2023-05-07T06:54:57.741Z,16.77
2023-05-07T06:55:57.708Z,16.80
2023-05-07T06:56:57.828Z,16.81
2023-05-07T06:57:57.699Z,16.83
2023-05-07T06:58:57.713Z,16.85
2023-05-07T06:59:57.686Z,16.85
2023-05-07T07:00:57.680Z,16.88
2023-05-07T07:01:57.752Z,16.88
2023-05-07T07:02:57.794Z,16.90
2023-05-07T07:03:57.628Z,16.92
2023-05-07T07:04:57.670Z,16.93
2023-05-07T07:05:57.608Z,16.95
2023-05-07T07:06:57.602Z,16.96
2023-05-07T07:07:57.559Z,16.99
2023-05-07T07:09:08.341Z,17.04
2023-05-07T07:09:57.535Z,17.07
2023-05-07T07:10:57.580Z,17.10
2023-05-07T07:11:57.541Z,17.11
2023-05-07T07:12:57.553Z,17.13
2023-05-07T07:13:57.498Z,17.15
2023-05-07T07:14:57.510Z,17.20
2023-05-07T07:15:57.505Z,17.20
2023-05-07T07:16:57.493Z,17.20
2023-05-07T07:17:57.558Z,17.23
2023-05-07T07:18:57.443Z,17.25
2023-05-07T07:19:57.472Z,17.28
2023-05-07T07:20:57.422Z,17.30
2023-05-07T07:21:57.392Z,17.32
2023-05-07T07:22:57.422Z,17.33
2023-05-07T07:23:57.371Z,17.36
2023-05-07T07:24:57.417Z,17.41
2023-05-07T07:25:57.372Z,17.46
2023-05-07T07:26:57.344Z,17.47
2023-05-07T07:27:57.349Z,17.50
2023-05-07T07:28:57.572Z,17.51
2023-05-07T07:29:57.327Z,17.54
2023-05-07T07:30:57.299Z,17.57
2023-05-07T07:31:57.322Z,17.59
2023-05-07T07:32:57.377Z,17.63
2023-05-07T07:33:57.282Z,17.64
2023-05-07T07:34:57.337Z,17.66
2023-05-07T07:35:57.253Z,17.67
2023-05-07T07:36:57.302Z,17.69
2023-05-07T07:37:57.227Z,17.70
2023-05-07T07:38:57.205Z,17.70
2023-05-07T07:39:57.180Z,17.70
2023-05-07T07:40:57.249Z,17.76
2023-05-07T07:41:57.166Z,17.76
2023-05-07T07:42:57.167Z,17.78
2023-05-07T07:43:57.180Z,17.81
2023-05-07T07:44:57.172Z,17.84
2023-05-07T07:45:57.294Z,17.84
2023-05-07T07:46:57.230Z,17.88
2023-05-07T07:47:57.191Z,17.91
2023-05-07T07:48:57.089Z,17.91
2023-05-07T07:49:57.097Z,17.94
2023-05-07T07:50:57.114Z,17.94
2023-05-07T07:51:57.047Z,17.94
2023-05-07T07:52:57.075Z,17.95
2023-05-07T07:53:57.058Z,17.99
2023-05-07T07:54:57.020Z,17.97
2023-05-07T07:55:59.363Z,17.99
2023-05-07T07:56:56.994Z,18.00
2023-05-07T07:57:56.994Z,18.02
2023-05-07T07:58:57.007Z,18.04
2023-05-07T07:59:56.947Z,18.07
2023-05-07T08:00:57.085Z,18.09
2023-05-07T08:01:57.079Z,18.09
2023-05-07T08:02:57.211Z,18.10
2023-05-07T08:03:57.023Z,18.13
2023-05-07T08:04:56.943Z,18.15
2023-05-07T08:05:56.914Z,18.18
2023-05-07T08:06:56.888Z,18.19
2023-05-07T08:07:56.914Z,18.22
2023-05-07T08:08:56.877Z,18.25
2023-05-07T08:09:56.832Z,18.29
2023-05-07T08:10:56.977Z,18.31
2023-05-07T08:11:56.816Z,18.33
2023-05-07T08:12:56.920Z,18.34
2023-05-07T08:13:56.825Z,18.40
2023-05-07T08:14:56.837Z,18.42
2023-05-07T08:15:56.782Z,18.43
2023-05-07T08:16:56.864Z,18.44
2023-05-07T08:17:56.804Z,18.43
2023-05-07T08:18:56.752Z,18.44
2023-05-07T08:19:56.762Z,18.46
2023-05-07T08:20:56.765Z,18.49
2023-05-07T08:21:56.710Z,18.49
2023-05-07T08:22:56.830Z,18.50
2023-05-07T08:23:56.681Z,18.54
2023-05-07T08:24:56.710Z,18.57
2023-05-07T08:25:56.694Z,18.59
2023-05-07T08:26:56.714Z,18.61
2023-05-07T08:27:56.648Z,18.62
2023-05-07T08:28:56.656Z,18.62
2023-05-07T08:29:56.622Z,18.64
2023-05-07T08:30:56.638Z,18.67
2023-05-07T08:31:56.622Z,18.72
2023-05-07T08:32:56.674Z,18.74
2023-05-07T08:33:56.582Z,18.77
2023-05-07T08:34:56.569Z,18.80
2023-05-07T08:35:56.551Z,18.83
2023-05-07T08:36:56.559Z,18.87
2023-05-07T08:37:56.566Z,18.90
2023-05-07T08:38:56.550Z,18.94
2023-05-07T08:39:56.565Z,18.95
2023-05-07T08:40:56.528Z,19.01
2023-05-07T08:41:56.562Z,19.01
2023-05-07T08:42:56.516Z,19.02
2023-05-07T08:43:56.512Z,19.08
2023-05-07T08:44:56.485Z,19.10
2023-05-07T08:45:56.597Z,19.14
2023-05-07T08:46:56.499Z,19.17
2023-05-07T08:47:56.521Z,19.21
2023-05-07T08:48:56.408Z,19.28
2023-05-07T08:49:56.426Z,19.32
2023-05-07T08:50:56.419Z,19.38
2023-05-07T08:51:56.385Z,19.42
2023-05-07T08:52:56.366Z,19.46
2023-05-07T08:53:56.344Z,19.51
2023-05-07T08:54:56.348Z,19.54
2023-05-07T08:55:56.340Z,19.60
2023-05-07T08:56:56.413Z,19.63
2023-05-07T08:57:56.314Z,19.66
2023-05-07T08:58:56.304Z,19.69
2023-05-07T08:59:56.271Z,19.73
2023-05-07T09:00:56.291Z,19.75
2023-05-07T09:01:56.336Z,19.79
2023-05-07T09:02:56.289Z,19.78
2023-05-07T09:03:56.293Z,19.76
2023-05-07T09:04:56.246Z,19.73
2023-05-07T09:05:56.225Z,19.73
2023-05-07T09:06:56.230Z,19.76
2023-05-07T09:07:58.242Z,19.79
2023-05-07T09:08:56.203Z,19.79
2023-05-07T09:09:56.176Z,19.83
2023-05-07T09:10:56.226Z,19.87
2023-05-07T09:11:56.155Z,19.90
2023-05-07T09:12:56.149Z,19.91
2023-05-07T09:13:56.124Z,19.88
2023-05-07T09:14:56.155Z,19.84
2023-05-07T09:15:56.177Z,19.86
2023-05-07T09:16:56.080Z,19.88
2023-05-07T09:17:56.079Z,19.91
2023-05-07T09:18:56.049Z,19.94
2023-05-07T09:19:56.055Z,19.97
2023-05-07T09:20:56.064Z,20.05
2023-05-07T09:21:56.036Z,20.05
2023-05-07T09:22:56.013Z,20.06
2023-05-07T09:23:55.985Z,20.09
2023-05-07T09:24:55.991Z,20.13
2023-05-07T09:25:56.073Z,20.20
2023-05-07T09:26:55.991Z,20.25
2023-05-07T09:27:55.947Z,20.33
2023-05-07T09:28:55.955Z,20.38
2023-05-07T09:29:55.926Z,20.47
2023-05-07T09:30:55.916Z,20.53
2023-05-07T09:31:55.982Z,20.61
2023-05-07T09:32:55.950Z,20.64
2023-05-07T09:33:55.864Z,20.69
2023-05-07T09:34:55.918Z,20.71
2023-05-07T09:35:55.858Z,20.76
2023-05-07T09:36:55.840Z,20.76
2023-05-07T09:37:55.881Z,20.69
2023-05-07T09:38:55.846Z,20.66
2023-05-07T09:39:55.817Z,20.61
2023-05-07T09:40:55.829Z,20.61
2023-05-07T09:41:55.829Z,20.62
2023-05-07T09:42:55.790Z,20.61
2023-05-07T09:43:55.771Z,20.64
2023-05-07T09:44:55.783Z,20.66
2023-05-07T09:45:55.792Z,20.68
2023-05-07T09:46:55.822Z,20.74
2023-05-07T09:47:55.738Z,20.76
2023-05-07T09:48:55.743Z,20.79
2023-05-07T09:49:55.703Z,20.83
2023-05-07T09:50:55.703Z,20.84
2023-05-07T09:51:55.660Z,20.87
2023-05-07T09:52:55.758Z,20.93
2023-05-07T09:53:55.684Z,20.95
2023-05-07T09:54:55.663Z,20.96
2023-05-07T09:55:55.640Z,20.98
2023-05-07T09:56:55.613Z,21.01
2023-05-07T09:57:55.616Z,20.98
2023-05-07T09:59:02.682Z,20.98
2023-05-07T09:59:55.591Z,20.96
2023-05-07T10:00:55.629Z,20.91
2023-05-07T10:01:55.590Z,20.87
2023-05-07T10:02:55.587Z,20.89
2023-05-07T10:03:55.725Z,20.96
2023-05-07T10:04:55.602Z,21.02
2023-05-07T10:05:55.530Z,21.05
2023-05-07T10:06:55.525Z,21.08
2023-05-07T10:07:55.476Z,21.05
2023-05-07T10:08:55.508Z,21.04
2023-05-07T10:09:55.521Z,21.04
2023-05-07T10:10:55.530Z,21.11
2023-05-07T10:11:55.505Z,21.17
2023-05-07T10:12:55.513Z,21.20
2023-05-07T10:13:55.410Z,21.23
2023-05-07T10:14:55.411Z,21.21
2023-05-07T10:15:55.422Z,21.23
2023-05-07T10:16:55.456Z,21.29
2023-05-07T10:17:55.475Z,21.30
2023-05-07T10:18:55.384Z,21.32
2023-05-07T10:19:55.331Z,21.41
2023-05-07T10:20:55.382Z,21.48
2023-05-07T10:21:55.315Z,21.53
2023-05-07T10:22:55.362Z,21.60
2023-05-07T10:23:55.308Z,21.63
2023-05-07T10:24:55.297Z,21.72
2023-05-07T10:26:00.472Z,21.75
2023-05-07T10:26:56.329Z,21.78
2023-05-07T10:27:55.256Z,21.88
2023-05-07T10:28:55.272Z,21.97
2023-05-07T10:29:55.241Z,22.06
2023-05-07T10:30:55.303Z,22.12
2023-05-07T10:31:55.201Z,22.17
2023-05-07T10:32:55.288Z,22.23
2023-05-07T10:33:55.180Z,22.23
2023-05-07T10:34:55.204Z,22.17
2023-05-07T10:35:55.175Z,22.09
2023-05-07T10:36:55.179Z,21.98
2023-05-07T10:37:55.129Z,21.97
2023-05-07T10:38:55.185Z,21.95
2023-05-07T10:39:55.117Z,21.88
2023-05-07T10:40:55.127Z,21.78
2023-05-07T10:41:55.085Z,21.76
2023-05-07T10:42:55.113Z,21.74
2023-05-07T10:43:55.083Z,21.72
2023-05-07T10:44:55.093Z,21.72
2023-05-07T10:45:55.152Z,21.67
2023-05-07T10:46:55.074Z,21.69
2023-05-07T10:47:55.048Z,21.71
2023-05-07T10:48:55.048Z,21.74
2023-05-07T10:49:55.035Z,21.76
2023-05-07T10:50:55.104Z,21.82
2023-05-07T10:51:54.995Z,21.82
2023-05-07T10:52:54.987Z,21.85
2023-05-07T10:53:54.990Z,21.88
2023-05-07T10:54:54.939Z,21.88
2023-05-07T10:55:54.956Z,21.91
2023-05-07T10:56:54.952Z,21.90
2023-05-07T10:57:54.953Z,21.90
2023-05-07T10:58:54.898Z,21.92
2023-05-07T10:59:55.755Z,21.92
2023-05-07T11:00:54.860Z,21.94
2023-05-07T11:01:55.082Z,21.92
2023-05-07T11:02:54.930Z,21.92
2023-05-07T11:03:54.929Z,21.88
2023-05-07T11:04:54.865Z,21.82
2023-05-07T11:05:54.827Z,21.78
2023-05-07T11:06:54.828Z,21.74
2023-05-07T11:07:54.867Z,21.71
2023-05-07T11:08:54.790Z,21.71
2023-05-07T11:09:54.784Z,21.71
2023-05-07T11:10:54.787Z,21.66
2023-05-07T11:11:54.757Z,21.61
2023-05-07T11:12:54.916Z,21.61
2023-05-07T11:13:54.737Z,21.60
2023-05-07T11:14:54.734Z,21.61
2023-05-07T11:15:54.738Z,21.61
2023-05-07T11:16:54.708Z,21.63
2023-05-07T11:17:54.766Z,21.63
2023-05-07T11:18:54.689Z,21.63
2023-05-07T11:19:54.689Z,21.63
2023-05-07T11:20:54.647Z,21.63
2023-05-07T11:21:54.676Z,21.61
2023-05-07T11:22:56.078Z,21.59
2023-05-07T11:23:54.674Z,21.56
2023-05-07T11:24:54.591Z,21.54
2023-05-07T11:25:54.628Z,21.51
2023-05-07T11:26:54.596Z,21.48
2023-05-07T11:27:54.848Z,21.46
2023-05-07T11:28:54.579Z,21.48
2023-05-07T11:29:54.549Z,21.48
2023-05-07T11:30:54.527Z,21.50
2023-05-07T11:31:54.565Z,21.48
2023-05-07T11:32:54.567Z,21.46
2023-05-07T11:33:54.502Z,21.46
2023-05-07T11:34:54.521Z,21.45
2023-05-07T11:35:54.490Z,21.45
2023-05-07T11:36:54.492Z,21.44
2023-05-07T11:37:54.469Z,21.39
2023-05-07T11:38:54.451Z,21.39
2023-05-07T11:39:54.469Z,21.38
2023-05-07T11:40:54.414Z,21.38
2023-05-07T11:41:54.437Z,21.38
2023-05-07T11:42:54.387Z,21.36
2023-05-07T11:43:54.402Z,21.36
2023-05-07T11:44:54.386Z,21.36
2023-05-07T11:45:54.484Z,21.36
2023-05-07T11:46:54.362Z,21.38
2023-05-07T11:47:54.365Z,21.38
2023-05-07T11:48:54.321Z,21.35
2023-05-07T11:49:54.328Z,21.35
2023-05-07T11:50:54.405Z,21.36
2023-05-07T11:51:54.318Z,21.36
2023-05-07T11:52:54.307Z,21.36
2023-05-07T11:53:54.298Z,21.36
2023-05-07T11:54:54.267Z,21.39
2023-05-07T11:55:54.264Z,21.39
2023-05-07T11:56:54.240Z,21.39
2023-05-07T11:57:54.248Z,21.36
2023-05-07T11:58:54.229Z,21.36
2023-05-07T11:59:54.202Z,21.36
2023-05-07T12:00:54.178Z,21.36
2023-05-07T12:01:54.245Z,21.35
2023-05-07T12:02:54.240Z,21.34
2023-05-07T12:03:54.259Z,21.35
2023-05-07T12:04:54.447Z,21.36
2023-05-07T12:05:54.129Z,21.36
2023-05-07T12:06:54.104Z,21.35
2023-05-07T12:07:54.176Z,21.35
2023-05-07T12:08:54.109Z,21.27
2023-05-07T12:09:54.090Z,21.26
2023-05-07T12:10:54.063Z,21.27
2023-05-07T12:11:54.088Z,21.29
2023-05-07T12:12:54.128Z,21.29
2023-05-07T12:13:54.064Z,21.29
2023-05-07T12:14:54.018Z,21.30
2023-05-07T12:15:54.043Z,21.32
2023-05-07T12:16:54.003Z,21.39
2023-05-07T12:17:54.091Z,21.44
2023-05-07T12:18:53.976Z,21.48
2023-05-07T12:19:53.964Z,21.56
2023-05-07T12:20:53.974Z,21.60
2023-05-07T12:21:54.012Z,21.64
2023-05-07T12:22:53.944Z,21.63
2023-05-07T12:23:53.953Z,21.63
2023-05-07T12:24:53.981Z,21.64
2023-05-07T12:25:53.898Z,21.64
2023-05-07T12:26:53.974Z,21.69
2023-05-07T12:27:53.878Z,21.76
2023-05-07T12:28:53.861Z,21.79
2023-05-07T12:29:53.867Z,21.82
2023-05-07T12:30:53.831Z,21.85
2023-05-07T12:31:53.978Z,21.88
2023-05-07T12:32:53.893Z,21.90
2023-05-07T12:34:08.513Z,21.91
2023-05-07T12:34:53.784Z,21.95
2023-05-07T12:35:53.795Z,21.97
2023-05-07T12:36:53.761Z,21.98
2023-05-07T12:37:53.790Z,21.99
2023-05-07T12:38:53.766Z,22.01
2023-05-07T12:39:53.744Z,22.02
2023-05-07T12:40:53.743Z,22.07
2023-05-07T12:41:53.753Z,22.06
2023-05-07T12:42:53.740Z,22.07
2023-05-07T12:43:53.695Z,22.09
2023-05-07T12:44:53.727Z,22.07
2023-05-07T12:45:53.678Z,22.04
2023-05-07T12:46:53.822Z,22.02
2023-05-07T12:47:53.710Z,21.98
2023-05-07T12:48:53.672Z,21.94
2023-05-07T12:49:53.630Z,21.91
2023-05-07T12:50:53.639Z,21.91
2023-05-07T12:51:53.751Z,21.90